LEBG

Burgos Airport

Burgos, Spain
TAF LEBG 230800Z 2309/2318 05006KT 9999 SCT020 PROB30 TEMPO 2309/2311 3000 BR PROB30 TEMPO 2312/2318 SHRA SCT030TCU
Issued Valid From Valid To
Apr-23 @ 08:00 UTC
(2 hours ago)
Apr-23 @ 09:00 UTC
(34 minutes ago)
Apr-23 @ 18:00 UTC
(in 8 hours)
Apr-23 @ 09:00 to Apr-23 @ 18:00
TAF LEBG 230800Z 2309/2318 05006KT 9999 SCT020
Wind Visibility Clouds
50° at 6 knots 10,000+ meters
  • Scattered at 2,000' AGL
Temporary  (Probability 30%) Apr-23 @ 09:00 to Apr-23 @ 11:00
PROB30 TEMPO 2309/2311 3000 BR
Visibility Conditions
2,993 meters
  • Mist
Temporary  (Probability 30%) Apr-23 @ 12:00 to Apr-23 @ 18:00
PROB30 TEMPO 2312/2318 SHRA SCT030TCU
Clouds Conditions
  • Scattered at 3,000' AGL
  • Rain
TAF LEBG 230800Z 2309/2318 05006KT 9999 SCT020 PROB30 TEMPO 2309/2311 3000 BR PROB30 TEMPO 2312/2318 SHRA SCT030TCU
Issued Apr-23 @ 08:00 UTC
(2 hours ago)
Valid From Apr-23 @ 09:00 UTC
(34 minutes ago)
Valid To Apr-23 @ 18:00 UTC
(in 8 hours)
Apr-23 @ 09:00 - Apr-23 @ 18:00
Wind Visibility
50° at 6 knots 10,000+ meters
Clouds
  • Scattered at 2,000' AGL
Probability 30% Temporary Apr-23 @ 09:00 - Apr-23 @ 11:00
Conditions
  • Mist
Probability 30% Temporary Apr-23 @ 12:00 - Apr-23 @ 18:00
Clouds
  • Scattered at 3,000' AGL
Conditions
  • Rain